Time;durP1;ratioP1;P1;durP2;ratioP2;P2;SDS_P1;SDS_P2;PMS_P1;PMS_P2;Temp;Humidity;BMP_temperature;BMP_pressure;BME280_temperature;BME280_humidity;BME280_pressure;Samples;Min_cycle;Max_cycle;Signal;HPM_P1;HPM_P2
2021/12/26 00:00:28;;;;;;;5.45;4.10;;;-4.20;99.90;;;;;;5019875;28;20201;-83
2021/12/26 00:02:57;;;;;;;6.03;4.10;;;-4.20;99.90;;;;;;5028450;28;20300;-85
2021/12/26 00:05:25;;;;;;;4.45;3.45;;;-4.20;99.90;;;;;;5032341;28;20221;-82
2021/12/26 00:07:52;;;;;;;5.65;4.25;;;-4.20;99.90;;;;;;5039406;28;20209;-82
2021/12/26 00:10:21;;;;;;;10.45;5.57;;;-4.20;99.90;;;;;;5025750;28;20220;-85
2021/12/26 00:12:49;;;;;;;7.47;4.43;;;-4.20;99.90;;;;;;5023933;28;20205;-85
2021/12/26 00:15:17;;;;;;;9.02;3.97;;;-4.20;99.90;;;;;;5032017;28;20223;-80
2021/12/26 00:17:44;;;;;;;7.75;4.00;;;-4.10;99.90;;;;;;5023043;28;20290;-83
2021/12/26 00:20:13;;;;;;;7.18;4.50;;;-4.20;99.90;;;;;;5022130;28;20209;-83
2021/12/26 00:22:41;;;;;;;5.63;5.05;;;-4.30;99.90;;;;;;5023116;28;20251;-85
2021/12/26 00:25:09;;;;;;;6.55;3.63;;;-4.30;99.90;;;;;;5021619;28;20227;-86
2021/12/26 00:27:37;;;;;;;5.95;3.85;;;-4.30;99.90;;;;;;5032460;28;20228;-84
2021/12/26 00:30:06;;;;;;;6.15;3.92;;;-4.30;99.90;;;;;;5026687;28;20201;-86
2021/12/26 00:32:33;;;;;;;10.88;3.72;;;-4.30;99.90;;;;;;5024659;28;20204;-85
2021/12/26 00:35:00;;;;;;;6.72;4.35;;;-4.30;99.90;;;;;;5024003;28;20303;-85
2021/12/26 00:37:28;;;;;;;6.00;4.28;;;-4.30;99.90;;;;;;5023417;28;20213;-84
2021/12/26 00:39:55;;;;;;;5.35;4.25;;;-4.30;99.90;;;;;;5021982;28;20283;-85
2021/12/26 00:42:22;;;;;;;6.00;3.90;;;-4.40;99.90;;;;;;5027704;28;20296;-86
2021/12/26 00:44:49;;;;;;;5.72;3.75;;;-4.40;99.90;;;;;;5025566;28;20229;-84
2021/12/26 00:47:16;;;;;;;5.55;3.60;;;-4.40;99.90;;;;;;5024164;28;20726;-82
2021/12/26 00:49:43;;;;;;;5.35;4.07;;;-4.40;99.90;;;;;;5028492;28;20337;-83
2021/12/26 00:52:10;;;;;;;5.82;4.45;;;-4.40;99.90;;;;;;5025957;28;20205;-86
2021/12/26 00:54:39;;;;;;;4.85;3.85;;;-4.50;99.90;;;;;;5025468;28;20255;-83
2021/12/26 00:57:06;;;;;;;7.30;4.20;;;-4.50;99.90;;;;;;5024511;28;20295;-86
2021/12/26 00:59:33;;;;;;;10.32;4.55;;;-4.40;99.90;;;;;;5024254;28;20189;-85
2021/12/26 01:02:01;;;;;;;8.13;4.63;;;-4.40;99.90;;;;;;5029837;28;20251;-84
2021/12/26 01:04:28;;;;;;;6.85;4.65;;;-4.50;99.90;;;;;;5024192;28;20225;-82
2021/12/26 01:06:55;;;;;;;10.95;5.45;;;-4.40;99.90;;;;;;5023537;28;20188;-85
2021/12/26 01:09:26;;;;;;;13.95;4.40;;;-4.30;99.90;;;;;;5023411;28;20222;-86
2021/12/26 01:11:59;;;;;;;6.60;4.60;;;-4.50;99.90;;;;;;5024010;28;20212;-84
2021/12/26 01:14:30;;;;;;;4.78;3.80;;;-4.60;99.90;;;;;;5037280;28;20224;-84
2021/12/26 01:17:06;;;;;;;10.73;4.93;;;-4.60;99.90;;;;;;5025623;28;20207;-86
2021/12/26 01:19:42;;;;;;;8.43;4.82;;;-4.70;99.90;;;;;;5024090;28;20239;-84
2021/12/26 01:22:10;;;;;;;9.15;4.10;;;-4.70;99.90;;;;;;5024201;28;20216;-84
2021/12/26 01:24:37;;;;;;;7.82;4.95;;;-4.60;99.90;;;;;;5031691;28;20225;-85
2021/12/26 01:27:06;;;;;;;12.10;4.90;;;-4.70;99.90;;;;;;5023995;28;20222;-85
2021/12/26 01:29:34;;;;;;;9.90;5.32;;;-4.80;99.90;;;;;;5021641;28;20747;-85
2021/12/26 01:32:01;;;;;;;6.38;3.70;;;-4.80;99.90;;;;;;5022055;28;20744;-84
2021/12/26 01:34:27;;;;;;;7.30;4.88;;;-4.80;99.90;;;;;;5035842;28;20269;-84
2021/12/26 01:36:55;;;;;;;8.48;4.63;;;-4.80;99.90;;;;;;5023827;28;20359;-84
2021/12/26 01:39:22;;;;;;;8.20;4.85;;;-4.90;99.90;;;;;;5023370;28;20206;-83
2021/12/26 01:41:50;;;;;;;5.47;4.18;;;-4.90;99.90;;;;;;5026428;28;20269;-84
2021/12/26 01:44:19;;;;;;;7.35;3.72;;;-4.90;99.90;;;;;;5027219;28;20316;-84
2021/12/26 01:46:47;;;;;;;10.18;5.50;;;-5.00;99.90;;;;;;5022528;28;20299;-85
2021/12/26 01:49:17;;;;;;;6.20;4.60;;;-5.00;99.90;;;;;;5022701;28;20476;-85
2021/12/26 01:51:47;;;;;;;8.90;4.47;;;-5.00;99.90;;;;;;5019223;28;20196;-82
2021/12/26 01:54:27;;;;;;;4.18;3.53;;;-5.10;99.90;;;;;;5022148;28;20288;-83
2021/12/26 01:56:54;;;;;;;4.72;3.58;;;-5.00;99.90;;;;;;5018599;28;20205;-85
2021/12/26 01:59:23;;;;;;;9.48;5.28;;;-5.00;99.90;;;;;;5026182;28;20225;-80
2021/12/26 02:01:50;;;;;;;6.47;4.40;;;-5.10;99.90;;;;;;5025071;28;20283;-83
2021/12/26 02:04:17;;;;;;;7.82;5.43;;;-5.20;99.90;;;;;;5029522;28;20671;-85
2021/12/26 02:06:44;;;;;;;5.38;3.80;;;-5.20;99.90;;;;;;5022402;28;20262;-85
2021/12/26 02:09:12;;;;;;;4.82;4.00;;;-5.10;99.90;;;;;;5021476;28;20292;-85
2021/12/26 02:11:39;;;;;;;8.32;4.05;;;-5.10;99.90;;;;;;5029733;28;20228;-83
2021/12/26 02:14:07;;;;;;;11.52;5.13;;;-4.90;99.90;;;;;;5021114;28;20217;-85
2021/12/26 02:16:35;;;;;;;9.02;4.70;;;-5.20;99.90;;;;;;5021683;28;20231;-85
2021/12/26 02:19:03;;;;;;;5.45;3.50;;;-5.10;99.90;;;;;;5022768;28;20650;-84
2021/12/26 02:21:49;;;;;;;5.30;3.70;;;-5.20;99.90;;;;;;5023833;28;20203;-83
2021/12/26 02:24:21;;;;;;;5.55;4.35;;;-5.20;99.90;;;;;;5020358;28;20645;-81
2021/12/26 02:29:33;;;;;;;10.35;4.75;;;-5.30;99.90;;;;;;5022303;28;20231;-84
2021/12/26 02:32:00;;;;;;;8.10;4.28;;;-5.30;99.90;;;;;;5027155;28;20272;-83
2021/12/26 02:34:26;;;;;;;7.57;5.70;;;-5.20;99.90;;;;;;5025215;28;20228;-85
2021/12/26 02:36:56;;;;;;;6.13;4.07;;;-5.10;99.90;;;;;;5021932;28;20201;-85
2021/12/26 02:39:22;;;;;;;11.07;4.97;;;-5.30;99.90;;;;;;5027474;28;20208;-84
2021/12/26 02:41:49;;;;;;;6.20;4.00;;;-5.40;99.90;;;;;;5024762;28;20206;-84
2021/12/26 02:44:16;;;;;;;4.85;3.72;;;-5.30;99.90;;;;;;5024823;28;20225;-82
2021/12/26 02:46:43;;;;;;;12.23;4.53;;;-5.20;99.90;;;;;;5024364;28;20281;-84
2021/12/26 02:49:10;;;;;;;6.80;3.95;;;-5.30;99.90;;;;;;5024489;28;20243;-85
2021/12/26 02:52:13;;;;;;;8.80;5.30;;;-5.30;99.90;;;;;;5022638;28;20279;-85
2021/12/26 02:54:41;;;;;;;4.85;3.80;;;-5.20;99.90;;;;;;5018404;28;20264;-80
2021/12/26 02:57:08;;;;;;;4.32;3.45;;;-5.30;99.90;;;;;;5017705;28;20237;-85
2021/12/26 02:59:35;;;;;;;4.22;3.63;;;-5.40;99.90;;;;;;5018654;28;20212;-83
2021/12/26 03:02:04;;;;;;;9.32;5.32;;;-5.40;99.90;;;;;;5019856;28;20578;-83
2021/12/26 03:04:35;;;;;;;5.10;3.78;;;-5.40;99.90;;;;;;5013796;28;20237;-81
2021/12/26 03:07:02;;;;;;;6.05;4.07;;;-5.30;99.90;;;;;;5019174;28;20266;-85
2021/12/26 03:09:35;;;;;;;8.00;3.67;;;-5.50;99.90;;;;;;5018979;28;20225;-82
2021/12/26 03:12:03;;;;;;;3.67;3.35;;;-5.40;99.90;;;;;;5021860;28;20263;-84
2021/12/26 03:14:30;;;;;;;7.22;3.88;;;-5.50;99.90;;;;;;5022527;28;20236;-83
2021/12/26 03:17:02;;;;;;;6.45;3.55;;;-5.60;99.90;;;;;;5037429;28;20209;-82
2021/12/26 03:19:31;;;;;;;5.63;3.05;;;-5.50;99.90;;;;;;5034649;28;20267;-81
2021/12/26 03:21:58;;;;;;;5.28;3.65;;;-5.50;99.90;;;;;;5023809;28;20232;-86
2021/12/26 03:24:25;;;;;;;4.50;3.38;;;-5.50;99.90;;;;;;5020501;28;20224;-84
2021/12/26 03:26:59;;;;;;;10.77;4.00;;;-5.50;99.90;;;;;;5021230;28;20200;-85
2021/12/26 03:29:27;;;;;;;7.20;3.70;;;-5.50;99.90;;;;;;5018980;28;20280;-83
2021/12/26 03:31:54;;;;;;;6.05;4.00;;;-5.60;99.90;;;;;;5019462;28;20197;-85
2021/12/26 03:34:21;;;;;;;3.90;3.13;;;-5.60;99.90;;;;;;5018595;28;20260;-84
2021/12/26 03:36:52;;;;;;;6.55;4.47;;;-5.60;99.90;;;;;;5017811;28;20204;-85
2021/12/26 03:39:19;;;;;;;6.35;4.35;;;-5.70;99.90;;;;;;5019626;28;20212;-85
2021/12/26 03:41:46;;;;;;;7.68;4.72;;;-5.70;99.90;;;;;;5019056;28;20203;-83
2021/12/26 03:44:13;;;;;;;9.73;5.30;;;-5.80;99.90;;;;;;5020580;28;20311;-85
2021/12/26 03:46:41;;;;;;;7.88;4.35;;;-5.80;99.90;;;;;;5020149;28;20204;-86
2021/12/26 03:49:08;;;;;;;5.53;4.07;;;-5.90;99.90;;;;;;5019187;28;20246;-84
2021/12/26 03:51:36;;;;;;;7.07;4.00;;;-5.90;99.90;;;;;;5017542;28;20272;-84
2021/12/26 03:54:05;;;;;;;5.88;3.40;;;-5.90;99.90;;;;;;5017174;28;20233;-85
2021/12/26 03:56:32;;;;;;;7.38;5.32;;;-5.90;99.90;;;;;;5020525;28;20295;-83
2021/12/26 03:59:00;;;;;;;5.82;4.18;;;-5.90;99.90;;;;;;5024088;28;20224;-82
2021/12/26 04:01:27;;;;;;;5.45;4.15;;;-5.90;99.90;;;;;;5025063;28;20229;-85
2021/12/26 04:03:56;;;;;;;6.25;4.05;;;-5.80;99.90;;;;;;5032931;28;20271;-83
2021/12/26 04:06:26;;;;;;;5.18;3.38;;;-5.80;99.90;;;;;;5030914;28;20205;-84
2021/12/26 04:08:53;;;;;;;7.47;4.85;;;-5.80;99.90;;;;;;5028352;28;20228;-84
2021/12/26 04:11:20;;;;;;;6.75;4.65;;;-5.70;99.90;;;;;;5024641;28;20272;-85
2021/12/26 04:13:48;;;;;;;7.57;4.30;;;-5.70;99.90;;;;;;5024962;28;20283;-84
2021/12/26 04:16:15;;;;;;;7.03;3.25;;;-5.80;99.90;;;;;;5021734;28;20228;-83
2021/12/26 04:18:42;;;;;;;3.67;3.38;;;-5.80;99.90;;;;;;5016664;28;20383;-85
2021/12/26 04:21:10;;;;;;;6.30;4.15;;;-5.80;99.90;;;;;;5021191;28;20216;-83
2021/12/26 04:23:37;;;;;;;7.95;4.53;;;-5.80;99.90;;;;;;5029363;28;20201;-82
2021/12/26 04:26:04;;;;;;;7.53;4.22;;;-5.90;99.90;;;;;;5021469;28;20201;-84
2021/12/26 04:28:31;;;;;;;9.13;5.15;;;-5.80;99.90;;;;;;5021033;28;20197;-82
2021/12/26 04:30:58;;;;;;;6.53;4.75;;;-5.80;99.90;;;;;;5021178;28;20260;-84
2021/12/26 04:33:25;;;;;;;5.00;3.85;;;-5.70;99.90;;;;;;5038184;28;20218;-84
2021/12/26 04:35:52;;;;;;;7.40;3.65;;;-5.70;99.90;;;;;;5020668;28;20235;-82
2021/12/26 04:38:20;;;;;;;7.93;3.47;;;-5.70;99.90;;;;;;5020733;28;20272;-86
2021/12/26 04:40:48;;;;;;;4.30;3.75;;;-5.70;99.90;;;;;;5020769;28;20279;-82
2021/12/26 04:43:17;;;;;;;6.95;5.32;;;-5.70;99.90;;;;;;5035855;28;20200;-83
2021/12/26 04:45:44;;;;;;;5.93;3.70;;;-5.50;99.90;;;;;;5033148;28;20232;-80
2021/12/26 04:48:11;;;;;;;8.02;4.28;;;-5.60;99.90;;;;;;5039796;28;20184;-81
2021/12/26 04:50:38;;;;;;;5.55;4.03;;;-5.70;99.90;;;;;;5039402;28;20243;-79
2021/12/26 04:53:04;;;;;;;5.13;3.50;;;-5.70;99.90;;;;;;5039568;28;20227;-80
2021/12/26 04:55:33;;;;;;;9.07;4.22;;;-5.70;99.90;;;;;;5038993;28;20221;-80
2021/12/26 04:58:00;;;;;;;7.22;4.82;;;-5.70;99.90;;;;;;5039576;28;20189;-80
2021/12/26 05:00:30;;;;;;;6.47;4.65;;;-5.80;99.90;;;;;;5039383;28;20185;-80
2021/12/26 05:02:58;;;;;;;8.52;4.68;;;-5.70;99.90;;;;;;5039583;28;20245;-81
2021/12/26 05:05:27;;;;;;;6.40;3.63;;;-5.80;99.90;;;;;;5039425;28;20717;-79
2021/12/26 05:07:54;;;;;;;15.77;4.72;;;-5.80;99.90;;;;;;5039456;28;20204;-80
2021/12/26 05:10:24;;;;;;;4.82;3.70;;;-5.70;99.90;;;;;;5038880;28;20212;-80
2021/12/26 05:12:52;;;;;;;6.75;3.95;;;-5.70;99.90;;;;;;5039597;28;20252;-80
2021/12/26 05:15:21;;;;;;;6.47;3.63;;;-5.70;99.90;;;;;;5028252;28;20293;-79
2021/12/26 05:17:48;;;;;;;5.32;3.92;;;-5.70;99.90;;;;;;5039060;28;20205;-78
2021/12/26 05:20:18;;;;;;;5.70;3.80;;;-5.80;99.90;;;;;;5047238;28;20236;-80
2021/12/26 05:22:45;;;;;;;6.57;4.10;;;-5.80;99.90;;;;;;5039271;28;20208;-79
2021/12/26 05:25:12;;;;;;;5.18;3.85;;;-5.80;99.90;;;;;;5039268;28;20205;-78
2021/12/26 05:27:39;;;;;;;14.43;4.20;;;-5.80;99.90;;;;;;5039196;28;20248;-78
2021/12/26 05:30:11;;;;;;;7.22;4.40;;;-5.80;99.90;;;;;;5026105;28;20496;-78
2021/12/26 05:32:38;;;;;;;6.45;3.85;;;-5.80;99.90;;;;;;5039124;28;20188;-79
2021/12/26 05:35:05;;;;;;;8.38;4.20;;;-5.80;99.90;;;;;;5045762;28;20224;-77
2021/12/26 05:37:32;;;;;;;8.90;4.40;;;-5.90;99.90;;;;;;5039924;28;20219;-79
2021/12/26 05:40:02;;;;;;;6.40;4.68;;;-5.80;99.90;;;;;;5039273;28;20189;-78
2021/12/26 05:42:29;;;;;;;6.95;3.95;;;-5.80;99.90;;;;;;5038910;28;20217;-79
2021/12/26 05:44:56;;;;;;;4.93;3.72;;;-5.80;99.90;;;;;;5038563;28;20232;-78
2021/12/26 05:47:24;;;;;;;6.00;3.92;;;-5.80;99.90;;;;;;5038909;28;20181;-79
2021/12/26 05:49:51;;;;;;;5.00;3.38;;;-5.80;99.90;;;;;;5041451;28;20209;-79
2021/12/26 05:52:18;;;;;;;8.65;5.00;;;-5.80;99.90;;;;;;5047174;28;20215;-79
2021/12/26 05:54:45;;;;;;;6.18;4.78;;;-5.80;99.90;;;;;;5046416;28;20212;-79
2021/12/26 05:57:12;;;;;;;8.88;4.22;;;-5.70;99.90;;;;;;5038789;28;20196;-78
2021/12/26 05:59:39;;;;;;;8.10;4.50;;;-5.70;99.90;;;;;;5038322;28;20192;-79
2021/12/26 06:02:06;;;;;;;9.48;4.35;;;-5.70;99.90;;;;;;5038487;28;20205;-79
2021/12/26 06:04:40;;;;;;;6.07;4.28;;;-5.70;99.90;;;;;;5038844;28;20213;-78
2021/12/26 06:07:09;;;;;;;5.88;3.60;;;-5.70;99.90;;;;;;5038292;28;20185;-79
2021/12/26 06:09:36;;;;;;;9.98;4.05;;;-5.70;99.90;;;;;;5038219;28;20239;-80
2021/12/26 06:12:04;;;;;;;5.13;4.50;;;-5.80;99.90;;;;;;5040099;28;20193;-84
2021/12/26 06:14:30;;;;;;;6.05;4.00;;;-5.90;99.90;;;;;;5034451;28;20224;-84
2021/12/26 06:16:57;;;;;;;5.97;3.80;;;-5.80;99.90;;;;;;5028332;28;20292;-84
2021/12/26 06:19:24;;;;;;;4.93;3.80;;;-5.90;99.90;;;;;;5026199;28;20224;-83
2021/12/26 06:21:52;;;;;;;7.88;3.90;;;-5.90;99.90;;;;;;5028027;28;20243;-83
2021/12/26 06:24:19;;;;;;;6.65;4.50;;;-5.90;99.90;;;;;;5022472;28;20221;-85
2021/12/26 06:26:54;;;;;;;9.07;4.50;;;-5.90;99.90;;;;;;5027507;28;20225;-83
2021/12/26 06:30:36;;;;;;;6.20;4.00;;;-5.90;99.90;;;;;;5029619;28;20200;-83
2021/12/26 06:33:57;;;;;;;5.40;3.80;;;-5.70;99.90;;;;;;4950793;29;20231;-84
2021/12/26 06:36:24;;;;;;;4.65;3.30;;;-5.90;99.90;;;;;;5016814;28;20201;-83
2021/12/26 06:38:52;;;;;;;5.25;3.90;;;-5.80;99.90;;;;;;5025819;28;20192;-84
2021/12/26 06:41:22;;;;;;;4.45;4.05;;;-5.80;99.90;;;;;;5023719;28;20223;-83
2021/12/26 06:43:50;;;;;;;6.20;4.05;;;-5.70;99.90;;;;;;5027462;28;20243;-82
2021/12/26 06:46:18;;;;;;;4.78;4.35;;;-6.00;99.90;;;;;;5035121;28;20212;-84
2021/12/26 06:48:45;;;;;;;6.55;4.03;;;-5.80;99.90;;;;;;5028510;28;20263;-83
2021/12/26 06:51:12;;;;;;;4.97;3.97;;;-5.70;99.90;;;;;;5024243;28;20225;-85
2021/12/26 06:53:39;;;;;;;5.22;3.65;;;-5.70;99.90;;;;;;5026901;28;20243;-84
2021/12/26 06:56:08;;;;;;;7.22;4.90;;;-5.70;99.90;;;;;;5024499;28;20678;-84
2021/12/26 06:58:35;;;;;;;5.40;4.20;;;-5.70;99.90;;;;;;5026762;28;20270;-84
2021/12/26 07:01:02;;;;;;;5.10;3.35;;;-5.70;99.90;;;;;;5026831;28;20236;-84
2021/12/26 07:03:29;;;;;;;5.28;4.72;;;-5.70;99.90;;;;;;5017916;28;20448;-84
2021/12/26 07:05:56;;;;;;;4.60;3.63;;;-5.80;99.90;;;;;;5024640;28;20215;-85
2021/12/26 07:08:23;;;;;;;5.70;3.95;;;-5.80;99.90;;;;;;5023676;28;20205;-83
2021/12/26 07:10:51;;;;;;;8.88;5.18;;;-5.80;99.90;;;;;;5023441;28;20247;-85
2021/12/26 07:13:19;;;;;;;5.03;3.40;;;-5.90;99.90;;;;;;5023589;28;20229;-83
2021/12/26 07:15:47;;;;;;;5.22;3.72;;;-5.90;99.90;;;;;;5024317;28;20251;-82
2021/12/26 07:18:14;;;;;;;6.70;4.00;;;-6.00;99.90;;;;;;5026326;28;20236;-82
2021/12/26 07:20:41;;;;;;;6.70;3.83;;;-6.00;99.90;;;;;;5017486;28;20248;-84
2021/12/26 07:23:08;;;;;;;7.13;4.03;;;-6.00;99.90;;;;;;5026154;28;20225;-84
2021/12/26 07:25:36;;;;;;;4.97;2.80;;;-6.00;99.90;;;;;;5025707;28;20244;-85
2021/12/26 07:28:03;;;;;;;5.18;4.55;;;-6.00;99.90;;;;;;5019141;28;20213;-84
2021/12/26 07:30:31;;;;;;;4.82;4.20;;;-6.10;99.90;;;;;;5018532;28;20220;-84
2021/12/26 07:39:42;;;;;;;4.30;3.60;;;-6.20;99.90;;;;;;4987150;28;20257;-84
2021/12/26 07:44:58;;;;;;;6.18;4.50;;;-6.00;99.90;;;;;;5030562;28;20227;-82
2021/12/26 07:47:26;;;;;;;7.63;4.25;;;-6.10;99.90;;;;;;5035447;28;20204;-81
2021/12/26 07:49:53;;;;;;;6.30;4.20;;;-6.10;99.90;;;;;;5025960;28;20311;-81
2021/12/26 07:52:24;;;;;;;7.35;4.40;;;-6.00;99.90;;;;;;5020607;28;20208;-81
2021/12/26 07:54:51;;;;;;;3.70;3.35;;;-5.90;99.90;;;;;;5027141;28;20754;-81
2021/12/26 07:57:18;;;;;;;6.25;4.93;;;-5.90;99.90;;;;;;5027262;28;20204;-82
2021/12/26 07:59:45;;;;;;;6.05;3.70;;;-5.90;99.90;;;;;;5031141;28;20197;-83
2021/12/26 08:02:19;;;;;;;8.45;4.10;;;-6.00;99.90;;;;;;5027277;28;20256;-83
2021/12/26 08:04:48;;;;;;;5.60;4.72;;;-6.00;99.90;;;;;;5033509;28;20225;-83
2021/12/26 08:07:15;;;;;;;5.03;3.95;;;-6.00;99.90;;;;;;5014672;28;20267;-83
2021/12/26 08:09:42;;;;;;;5.72;4.15;;;-6.00;99.90;;;;;;5019150;28;20267;-83
2021/12/26 08:12:10;;;;;;;4.82;3.45;;;-5.90;99.90;;;;;;5026964;28;20201;-82
2021/12/26 08:14:36;;;;;;;6.80;4.05;;;-5.80;99.90;;;;;;5051412;28;20219;-82
2021/12/26 08:17:04;;;;;;;4.80;3.88;;;-5.70;99.90;;;;;;5038092;28;20198;-83
2021/12/26 08:19:31;;;;;;;5.65;4.15;;;-5.60;99.90;;;;;;5032082;28;20201;-83
2021/12/26 08:21:59;;;;;;;8.48;4.93;;;-5.40;99.90;;;;;;5026138;28;20240;-82
2021/12/26 08:24:26;;;;;;;6.57;4.90;;;-5.40;99.90;;;;;;5025952;28;20292;-82
2021/12/26 08:26:54;;;;;;;6.97;4.10;;;-5.30;99.90;;;;;;5025800;28;20201;-83
2021/12/26 08:29:21;;;;;;;5.93;4.22;;;-5.10;99.90;;;;;;5026240;28;20201;-82
2021/12/26 08:31:49;;;;;;;6.70;6.13;;;-4.90;99.90;;;;;;5025358;28;20225;-82
2021/12/26 08:34:21;;;;;;;12.25;4.72;;;-4.70;99.90;;;;;;5026926;28;20235;-83
2021/12/26 08:36:50;;;;;;;5.93;5.32;;;-4.50;99.90;;;;;;5024353;28;20256;-81
2021/12/26 08:39:21;;;;;;;5.05;4.25;;;-4.50;99.90;;;;;;5024248;28;20927;-81
2021/12/26 08:41:48;;;;;;;11.15;4.20;;;-4.70;99.90;;;;;;5025057;28;20243;-81
2021/12/26 08:44:16;;;;;;;3.88;3.53;;;-4.50;99.90;;;;;;5024585;28;20240;-82
2021/12/26 08:46:44;;;;;;;7.72;4.10;;;-4.50;99.90;;;;;;5038371;28;20248;-81
2021/12/26 08:49:10;;;;;;;5.43;3.95;;;-4.50;99.90;;;;;;5047397;28;20189;-80
2021/12/26 08:51:37;;;;;;;5.00;3.75;;;-4.40;99.90;;;;;;5040801;28;20285;-81
2021/12/26 08:54:04;;;;;;;6.00;3.60;;;-3.90;99.90;;;;;;5029557;28;20221;-81
2021/12/26 08:56:32;;;;;;;8.23;3.67;;;-2.80;99.90;;;;;;5029336;28;20209;-84
2021/12/26 08:59:00;;;;;;;5.25;3.55;;;-1.70;97.00;;;;;;5034184;28;20308;-83
2021/12/26 09:01:27;;;;;;;4.90;3.53;;;-0.60;94.80;;;;;;5031909;28;20208;-86
2021/12/26 09:03:54;;;;;;;7.05;4.00;;;0.80;92.10;;;;;;5036382;28;20222;-84
2021/12/26 09:06:21;;;;;;;3.85;3.35;;;1.90;86.20;;;;;;5031758;28;20641;-83
2021/12/26 09:08:48;;;;;;;4.95;3.67;;;2.60;80.20;;;;;;5024282;28;20290;-84
2021/12/26 09:11:16;;;;;;;6.45;3.20;;;3.00;78.00;;;;;;5022658;28;20228;-83
2021/12/26 09:13:45;;;;;;;8.57;3.90;;;3.70;74.60;;;;;;5020511;28;20268;-83
2021/12/26 09:16:15;;;;;;;5.95;3.85;;;3.90;71.20;;;;;;5028915;28;20209;-82
2021/12/26 09:18:43;;;;;;;5.32;4.03;;;4.30;72.10;;;;;;5011788;28;20242;-85
2021/12/26 09:21:10;;;;;;;4.32;3.20;;;5.10;70.50;;;;;;5020594;28;20652;-84
2021/12/26 09:23:37;;;;;;;4.85;3.80;;;5.40;66.90;;;;;;5025818;28;20435;-85
2021/12/26 09:26:04;;;;;;;5.82;3.28;;;5.10;66.50;;;;;;5032406;28;20191;-86
2021/12/26 09:28:36;;;;;;;4.45;2.85;;;5.50;65.90;;;;;;5036681;28;20204;-84
2021/12/26 09:31:04;;;;;;;5.95;3.97;;;5.90;63.50;;;;;;5025807;28;20246;-84
2021/12/26 09:33:31;;;;;;;6.15;4.18;;;6.10;64.20;;;;;;5023927;28;20672;-83
2021/12/26 09:36:00;;;;;;;5.30;3.30;;;6.30;62.20;;;;;;5025936;28;20219;-81
2021/12/26 09:38:27;;;;;;;5.50;3.90;;;6.60;62.50;;;;;;5023376;28;20397;-81
2021/12/26 09:40:54;;;;;;;3.70;3.25;;;7.00;61.70;;;;;;5019796;28;20726;-81
2021/12/26 09:43:20;;;;;;;5.97;4.55;;;7.20;61.00;;;;;;5020310;28;20200;-82
2021/12/26 09:45:47;;;;;;;4.25;2.88;;;7.50;59.10;;;;;;5021228;28;20231;-83
2021/12/26 09:48:16;;;;;;;5.10;3.83;;;7.40;58.40;;;;;;5024881;28;20201;-82
2021/12/26 09:50:43;;;;;;;6.10;4.38;;;7.40;58.40;;;;;;5014182;28;20216;-85
2021/12/26 09:53:10;;;;;;;6.13;3.38;;;7.40;58.30;;;;;;5023039;28;20300;-81
2021/12/26 09:55:37;;;;;;;5.80;3.40;;;7.60;58.40;;;;;;5018594;28;20244;-82
2021/12/26 09:58:04;;;;;;;4.00;2.72;;;7.80;57.80;;;;;;5019517;28;20213;-82
2021/12/26 10:00:34;;;;;;;5.47;3.80;;;7.50;57.10;;;;;;5021218;28;20264;-82
2021/12/26 10:03:22;;;;;;;5.40;3.80;;;7.20;57.60;;;;;;5021575;28;20207;-81
2021/12/26 10:06:12;;;;;;;4.63;3.15;;;7.50;58.80;;;;;;5026175;28;20221;-82
2021/12/26 10:08:54;;;;;;;4.97;3.40;;;7.90;58.00;;;;;;5021149;28;20197;-81
2021/12/26 10:11:24;;;;;;;6.35;3.70;;;8.00;56.60;;;;;;5028034;28;20296;-81
2021/12/26 10:13:53;;;;;;;8.23;4.18;;;7.70;56.60;;;;;;5020145;28;20216;-80
2021/12/26 10:16:22;;;;;;;6.00;4.03;;;7.20;56.90;;;;;;5021077;28;20553;-82
2021/12/26 10:18:50;;;;;;;4.75;3.72;;;6.90;57.80;;;;;;5025750;28;20219;-82
2021/12/26 10:21:29;;;;;;;5.53;3.80;;;6.60;58.20;;;;;;5033800;28;20353;-81
2021/12/26 10:24:00;;;;;;;6.63;3.83;;;6.10;58.30;;;;;;5025453;28;20317;-81
2021/12/26 10:26:28;;;;;;;11.75;5.07;;;4.70;59.30;;;;;;5025130;28;20189;-82
2021/12/26 10:29:07;;;;;;;6.60;3.25;;;4.80;61.50;;;;;;5024328;28;20205;-81
2021/12/26 10:31:34;;;;;;;4.82;3.20;;;4.10;61.40;;;;;;5024539;28;20231;-81
2021/12/26 10:34:03;;;;;;;6.82;4.10;;;3.50;64.00;;;;;;5030971;28;20256;-80
2021/12/26 10:36:30;;;;;;;5.85;3.38;;;3.10;65.50;;;;;;5023131;28;20224;-81
2021/12/26 10:39:12;;;;;;;3.83;2.85;;;2.60;66.70;;;;;;5025468;28;20264;-80
2021/12/26 10:41:42;;;;;;;5.13;2.85;;;1.90;68.90;;;;;;5020744;28;20193;-81
2021/12/26 10:44:30;;;;;;;6.05;4.20;;;1.50;71.10;;;;;;5028011;28;20220;-81
2021/12/26 10:46:59;;;;;;;4.18;3.30;;;1.00;73.00;;;;;;5021167;28;20196;-79
2021/12/26 10:49:30;;;;;;;4.20;3.20;;;0.70;74.80;;;;;;5034168;28;20252;-81
2021/12/26 10:51:59;;;;;;;4.95;3.20;;;0.40;76.80;;;;;;5022786;28;20205;-82
2021/12/26 10:54:31;;;;;;;7.55;3.67;;;0.10;79.10;;;;;;5021920;28;20224;-81
2021/12/26 10:57:10;;;;;;;4.82;3.42;;;0.10;80.20;;;;;;5021938;28;20212;-81
2021/12/26 10:59:38;;;;;;;8.93;4.55;;;0.00;81.60;;;;;;5033227;28;20208;-80
2021/12/26 11:02:06;;;;;;;6.07;5.07;;;0.00;83.10;;;;;;5028286;28;20209;-80
2021/12/26 11:04:35;;;;;;;9.77;4.47;;;0.10;83.30;;;;;;5027620;28;20232;-80
2021/12/26 11:07:04;;;;;;;5.85;3.58;;;0.20;84.40;;;;;;5023767;28;20201;-80
2021/12/26 11:09:31;;;;;;;6.93;3.97;;;0.10;83.50;;;;;;5023319;28;20255;-85
2021/12/26 11:12:00;;;;;;;4.93;4.13;;;0.00;83.20;;;;;;5023970;28;20225;-86
2021/12/26 11:14:27;;;;;;;5.90;4.07;;;0.00;83.00;;;;;;5019834;28;20730;-83
2021/12/26 11:16:54;;;;;;;7.57;4.70;;;0.00;83.70;;;;;;5018515;28;20204;-83
2021/12/26 11:19:43;;;;;;;5.15;3.47;;;0.00;84.90;;;;;;5019816;28;20204;-84
2021/12/26 11:22:11;;;;;;;5.10;3.15;;;0.10;85.60;;;;;;5018019;28;20864;-85
2021/12/26 11:24:40;;;;;;;6.45;3.55;;;0.10;85.40;;;;;;5029050;28;20217;-82
2021/12/26 11:27:07;;;;;;;5.93;3.47;;;0.00;83.50;;;;;;5019906;28;20207;-83
2021/12/26 11:29:34;;;;;;;6.65;3.65;;;-0.10;82.80;;;;;;5021102;28;20287;-82
2021/12/26 11:32:01;;;;;;;5.07;3.20;;;-0.20;83.40;;;;;;5021333;28;20273;-84
2021/12/26 11:34:31;;;;;;;5.55;3.50;;;-0.10;84.10;;;;;;5024681;28;20312;-81
2021/12/26 11:36:59;;;;;;;9.90;3.15;;;0.00;83.60;;;;;;5015130;28;20263;-83
2021/12/26 11:39:28;;;;;;;9.52;3.45;;;0.10;83.20;;;;;;5029374;28;20224;-82
2021/12/26 11:42:07;;;;;;;4.70;3.00;;;-0.10;82.50;;;;;;5011875;28;20245;-83
2021/12/26 11:44:50;;;;;;;4.88;2.83;;;-0.20;82.00;;;;;;5015760;28;20232;-83
2021/12/26 11:47:40;;;;;;;7.07;4.30;;;-0.20;82.50;;;;;;5011976;28;20288;-84
2021/12/26 11:50:21;;;;;;;6.75;4.68;;;-0.30;83.10;;;;;;5032610;28;20272;-84
2021/12/26 11:53:08;;;;;;;6.35;4.50;;;-0.30;83.70;;;;;;5024086;28;20367;-85
2021/12/26 11:55:41;;;;;;;8.32;2.88;;;-0.30;83.70;;;;;;5021175;28;20715;-84
2021/12/26 11:58:40;;;;;;;4.95;2.97;;;-0.30;84.80;;;;;;5031798;28;20254;-81
2021/12/26 12:01:14;;;;;;;6.55;4.20;;;-0.20;85.00;;;;;;4978613;28;20574;-80
2021/12/26 12:03:41;;;;;;;6.57;3.83;;;-0.30;84.30;;;;;;5021214;28;20223;-81
2021/12/26 12:06:08;;;;;;;4.10;2.60;;;-0.30;85.70;;;;;;5017982;28;20273;-80
2021/12/26 12:08:37;;;;;;;5.43;3.03;;;-0.30;84.60;;;;;;5023808;28;20201;-81
2021/12/26 12:11:05;;;;;;;7.35;3.30;;;-0.30;84.50;;;;;;5026484;28;20225;-82
2021/12/26 12:13:50;;;;;;;4.63;3.30;;;-0.30;84.80;;;;;;5035361;28;20196;-84
2021/12/26 12:16:34;;;;;;;3.08;2.53;;;-0.30;85.20;;;;;;5033700;28;20218;-83
2021/12/26 12:19:05;;;;;;;3.25;2.83;;;-0.20;86.20;;;;;;5024497;28;20217;-82
2021/12/26 12:21:36;;;;;;;4.40;3.95;;;-0.10;86.10;;;;;;5012769;28;20220;-84
2021/12/26 12:24:08;;;;;;;5.47;3.53;;;-0.20;85.60;;;;;;5016295;28;20249;-82
2021/12/26 12:26:41;;;;;;;5.57;3.17;;;-0.10;86.40;;;;;;5020488;28;20209;-82
2021/12/26 12:29:09;;;;;;;5.85;3.53;;;-0.10;85.90;;;;;;5024743;28;20248;-82
2021/12/26 12:31:36;;;;;;;6.00;4.40;;;-0.10;85.70;;;;;;5026209;28;20609;-81
2021/12/26 12:34:06;;;;;;;6.57;3.83;;;-0.10;85.30;;;;;;5026984;28;20248;-82
2021/12/26 12:36:35;;;;;;;4.38;3.40;;;-0.10;85.50;;;;;;5024526;28;20201;-82
2021/12/26 12:39:18;;;;;;;4.38;2.88;;;0.00;85.70;;;;;;5023111;28;20208;-83
2021/12/26 12:41:47;;;;;;;4.82;3.53;;;-0.20;85.60;;;;;;5027194;28;20197;-82
2021/12/26 12:44:27;;;;;;;6.28;3.47;;;-0.20;85.30;;;;;;5021823;28;20218;-82
2021/12/26 12:46:59;;;;;;;6.88;3.55;;;-0.20;85.60;;;;;;5022574;28;20267;-81
2021/12/26 12:49:48;;;;;;;7.55;3.08;;;-0.20;86.20;;;;;;5026831;28;20219;-85
2021/12/26 12:52:40;;;;;;;4.90;3.15;;;-0.20;86.20;;;;;;5027527;28;20227;-86
2021/12/26 12:55:12;;;;;;;4.45;3.25;;;-0.10;86.80;;;;;;5012141;28;20287;-83
2021/12/26 12:57:42;;;;;;;4.60;2.88;;;-0.10;85.90;;;;;;5034743;28;20214;-84
2021/12/26 13:00:41;;;;;;;7.10;4.10;;;-0.10;85.30;;;;;;5025416;28;20240;-87
2021/12/26 13:03:13;;;;;;;3.70;3.35;;;-0.10;86.10;;;;;;5021310;28;20250;-86
2021/12/26 13:05:40;;;;;;;7.25;4.18;;;0.00;86.10;;;;;;5032600;28;20220;-84
2021/12/26 13:08:09;;;;;;;4.78;3.30;;;0.00;86.30;;;;;;5029819;28;20826;-82
2021/12/26 13:10:38;;;;;;;5.63;3.92;;;0.10;86.40;;;;;;5028908;28;20291;-84
2021/12/26 13:13:07;;;;;;;5.32;3.42;;;0.10;85.80;;;;;;5028322;28;20773;-82